Time;durP1;ratioP1;P1;durP2;ratioP2;P2;SDS_P1;SDS_P2;PMS_P1;PMS_P2;Temp;Humidity;BMP_temperature;BMP_pressure;BME280_temperature;BME280_humidity;BME280_pressure;Samples;Min_cycle;Max_cycle;Signal;HPM_P1;HPM_P2
2023/06/21 00:00:45;;;;;;;0.70;0.70;;;;;;;23.38;100.00;100159.59;5071958;28;20203;-74
2023/06/21 00:03:12;;;;;;;0.85;0.85;;;;;;;23.38;100.00;100164.03;5072124;28;20944;-74
2023/06/21 00:05:39;;;;;;;0.70;0.70;;;;;;;23.38;100.00;100177.25;5072358;28;20194;-74
2023/06/21 00:08:06;;;;;;;1.00;0.90;;;;;;;23.40;100.00;100178.09;5072248;28;20252;-74
2023/06/21 00:10:33;;;;;;;0.80;0.80;;;;;;;23.28;100.00;100163.50;5072344;28;20252;-74
2023/06/21 00:13:01;;;;;;;0.80;0.80;;;;;;;23.24;100.00;100153.94;5071982;28;20203;-74
2023/06/21 00:15:28;;;;;;;0.80;0.80;;;;;;;23.18;100.00;100165.63;5071785;28;20203;-73
2023/06/21 00:17:55;;;;;;;0.77;0.70;;;;;;;23.27;100.00;100182.06;5071816;28;20221;-74
2023/06/21 00:20:22;;;;;;;0.85;0.85;;;;;;;23.13;100.00;100180.78;5071522;28;20195;-73
2023/06/21 00:22:55;;;;;;;1.05;0.93;;;;;;;23.07;100.00;100188.94;5071818;28;20203;-73
2023/06/21 00:25:23;;;;;;;0.70;0.70;;;;;;;22.98;100.00;100176.00;5071378;28;20199;-74
2023/06/21 00:27:50;;;;;;;0.88;0.88;;;;;;;22.64;100.00;100156.88;5071230;28;20227;-75
2023/06/21 00:30:18;;;;;;;0.80;0.80;;;;;;;22.76;100.00;100180.28;5071268;28;20226;-74
2023/06/21 00:32:45;;;;;;;0.80;0.80;;;;;;;22.64;100.00;100175.38;5071924;28;20202;-74
2023/06/21 00:35:12;;;;;;;0.70;0.70;;;;;;;22.43;100.00;100171.66;5071156;28;20194;-74
2023/06/21 00:37:39;;;;;;;0.70;0.70;;;;;;;22.51;100.00;100179.34;5071383;28;20227;-74
2023/06/21 00:40:11;;;;;;;0.70;0.70;;;;;;;22.67;100.00;100175.31;5071358;28;20199;-75
2023/06/21 00:42:39;;;;;;;0.80;0.80;;;;;;;22.62;100.00;100177.19;5037749;28;20260;-74
2023/06/21 00:45:07;;;;;;;0.70;0.70;;;;;;;22.65;100.00;100180.59;5071466;28;20199;-74
2023/06/21 00:47:35;;;;;;;1.05;1.05;;;;;;;22.73;100.00;100175.09;5071275;28;20673;-74
2023/06/21 00:50:02;;;;;;;0.90;0.85;;;;;;;22.64;100.00;100172.72;5071404;28;20641;-74
2023/06/21 00:52:31;;;;;;;0.90;0.90;;;;;;;22.68;100.00;100177.91;5071695;28;20191;-74
2023/06/21 00:54:58;;;;;;;0.80;0.80;;;;;;;22.60;100.00;100171.09;5071280;28;20577;-74
2023/06/21 00:57:25;;;;;;;0.65;0.65;;;;;;;22.55;100.00;100179.16;5071482;28;20227;-74
2023/06/21 00:59:53;;;;;;;0.80;0.80;;;;;;;22.42;100.00;100158.47;5071306;28;20231;-75
2023/06/21 01:02:20;;;;;;;0.80;0.80;;;;;;;22.44;100.00;100154.03;5069937;28;20234;-74
2023/06/21 01:04:49;;;;;;;0.93;0.93;;;;;;;22.66;100.00;100173.53;5071249;28;20206;-74
2023/06/21 01:07:28;;;;;;;4.70;4.32;;;;;;;22.76;100.00;100164.41;5071411;28;20709;-75
2023/06/21 01:10:14;;;;;;;0.70;0.70;;;;;;;22.82;100.00;100174.81;5071843;28;20199;-75
2023/06/21 01:12:55;;;;;;;0.80;0.80;;;;;;;22.74;100.00;100176.84;5035541;28;20195;-74
2023/06/21 01:15:25;;;;;;;0.65;0.65;;;;;;;22.63;100.00;100174.50;5051400;28;20231;-73
2023/06/21 01:17:54;;;;;;;0.70;0.70;;;;;;;22.60;100.00;100179.91;5063961;28;20284;-73
2023/06/21 01:20:28;;;;;;;0.80;0.80;;;;;;;22.67;100.00;100178.81;5052631;28;20207;-72
2023/06/21 01:23:09;;;;;;;1.10;1.00;;;;;;;22.65;100.00;100166.53;5071092;28;20666;-73
2023/06/21 01:25:46;;;;;;;0.93;0.85;;;;;;;22.75;100.00;100194.44;5070309;28;20708;-74
2023/06/21 01:28:41;;;;;;;0.70;0.70;;;;;;;23.06;100.00;100191.63;5070759;28;20281;-73
2023/06/21 01:31:15;;;;;;;1.50;0.90;;;;;;;23.24;100.00;100198.91;5071412;28;20234;-74
2023/06/21 01:33:43;;;;;;;1.90;1.05;;;;;;;23.23;100.00;100205.13;5070804;28;20225;-73
2023/06/21 01:36:10;;;;;;;0.70;0.70;;;;;;;22.98;100.00;100164.56;5071328;28;20194;-73
2023/06/21 01:38:37;;;;;;;1.48;0.95;;;;;;;23.06;100.00;100204.84;5069837;28;20241;-73
2023/06/21 01:41:04;;;;;;;0.70;0.70;;;;;;;22.90;100.00;100204.47;5070972;28;20722;-74
2023/06/21 01:43:32;;;;;;;1.13;1.00;;;;;;;22.91;100.00;100208.88;5062469;28;20207;-74
2023/06/21 01:46:02;;;;;;;0.80;0.80;;;;;;;22.91;100.00;100198.28;5070464;28;20610;-74
2023/06/21 01:48:33;;;;;;;0.70;0.70;;;;;;;22.77;100.00;100197.88;5071165;28;20607;-74
2023/06/21 01:51:03;;;;;;;0.80;0.80;;;;;;;22.67;100.00;100197.31;5071084;28;20191;-73
2023/06/21 01:53:32;;;;;;;0.70;0.70;;;;;;;22.63;100.00;100192.16;5071352;28;20364;-73
2023/06/21 01:56:01;;;;;;;0.70;0.70;;;;;;;22.62;100.00;100187.75;5035742;28;20662;-73
2023/06/21 01:58:28;;;;;;;0.90;0.90;;;;;;;22.54;100.00;100195.09;5070715;28;20251;-73
2023/06/21 02:00:57;;;;;;;0.73;0.73;;;;;;;22.57;100.00;100184.41;5070458;28;20274;-73
2023/06/21 02:03:28;;;;;;;2.28;1.17;;;;;;;22.51;100.00;100169.59;5070726;28;20298;-73
2023/06/21 02:05:58;;;;;;;0.70;0.70;;;;;;;22.52;100.00;100194.25;5070871;28;20674;-74
2023/06/21 02:08:26;;;;;;;0.80;0.80;;;;;;;22.31;100.00;100176.44;5070986;28;20191;-74
2023/06/21 02:10:53;;;;;;;0.60;0.60;;;;;;;22.34;100.00;100200.13;5071024;28;20206;-74
2023/06/21 02:13:20;;;;;;;0.82;0.82;;;;;;;22.38;100.00;100205.28;5070687;28;20207;-75
2023/06/21 02:15:47;;;;;;;0.70;0.70;;;;;;;22.40;100.00;100205.25;5071091;28;20218;-74
2023/06/21 02:18:14;;;;;;;0.60;0.60;;;;;;;22.22;100.00;100178.44;5070558;28;20219;-74
2023/06/21 02:20:41;;;;;;;1.00;1.00;;;;;;;22.24;100.00;100208.34;5039824;28;20286;-74
2023/06/21 02:23:10;;;;;;;0.70;0.70;;;;;;;22.18;100.00;100192.69;5074205;28;20209;-75
2023/06/21 02:25:37;;;;;;;0.70;0.70;;;;;;;22.13;100.00;100205.16;5074460;28;20289;-74
2023/06/21 02:28:04;;;;;;;0.70;0.70;;;;;;;22.15;100.00;100208.59;5074178;28;20214;-74
2023/06/21 02:30:30;;;;;;;0.70;0.70;;;;;;;22.09;100.00;100207.94;5074085;28;20979;-74
2023/06/21 02:32:57;;;;;;;0.70;0.70;;;;;;;22.03;100.00;100202.84;5072378;28;20203;-73
2023/06/21 02:35:25;;;;;;;0.73;0.73;;;;;;;21.92;100.00;100187.31;5056016;28;20573;-75
2023/06/21 02:37:52;;;;;;;0.70;0.70;;;;;;;21.89;100.00;100197.94;5055632;28;20203;-74
2023/06/21 02:40:20;;;;;;;0.70;0.70;;;;;;;21.96;100.00;100199.53;5072078;28;20574;-74
2023/06/21 02:42:47;;;;;;;0.80;0.80;;;;;;;21.76;100.00;100193.91;5073629;28;20202;-74
2023/06/21 02:45:14;;;;;;;0.80;0.80;;;;;;;21.82;100.00;100198.16;5074212;28;20666;-74
2023/06/21 02:47:41;;;;;;;1.00;0.90;;;;;;;21.84;100.00;100193.69;5073246;28;20214;-74
2023/06/21 02:50:08;;;;;;;0.70;0.70;;;;;;;21.91;100.00;100204.06;5073653;28;20658;-74
2023/06/21 02:52:35;;;;;;;0.73;0.73;;;;;;;21.90;100.00;100196.16;5069774;28;20234;-74
2023/06/21 02:55:04;;;;;;;0.70;0.70;;;;;;;22.07;100.00;100208.00;5072604;28;20206;-75
2023/06/21 02:57:32;;;;;;;1.27;0.80;;;;;;;22.16;100.00;100205.06;5072464;28;20218;-74
2023/06/21 02:59:59;;;;;;;0.70;0.70;;;;;;;22.09;100.00;100213.22;5070165;28;20292;-74
2023/06/21 03:02:32;;;;;;;0.70;0.70;;;;;;;22.18;100.00;100216.47;5073270;28;20650;-73
2023/06/21 03:04:59;;;;;;;0.80;0.80;;;;;;;22.40;100.00;100214.00;5074436;28;20285;-74
2023/06/21 03:07:27;;;;;;;0.75;0.73;;;;;;;22.47;100.00;100220.00;5073461;28;20762;-73
2023/06/21 03:09:53;;;;;;;0.70;0.70;;;;;;;22.56;100.00;100224.97;5073320;28;20195;-74
2023/06/21 03:12:20;;;;;;;0.85;0.85;;;;;;;22.72;100.00;100228.91;5073479;28;20203;-74
2023/06/21 03:14:48;;;;;;;0.73;0.73;;;;;;;22.92;100.00;100237.03;5072979;28;20195;-73
2023/06/21 03:17:15;;;;;;;0.80;0.80;;;;;;;22.97;100.00;100237.75;5073840;28;20300;-75
2023/06/21 03:19:42;;;;;;;0.80;0.80;;;;;;;23.21;100.00;100233.44;5073142;28;20597;-73
2023/06/21 03:22:09;;;;;;;0.90;0.90;;;;;;;23.64;100.00;100231.03;5039218;28;20614;-73
2023/06/21 03:24:35;;;;;;;0.80;0.80;;;;;;;24.21;100.00;100237.78;5073017;28;20218;-73
2023/06/21 03:27:03;;;;;;;1.30;1.30;;;;;;;24.70;100.00;100226.09;5073009;28;20248;-74
2023/06/21 03:29:34;;;;;;;1.27;1.00;;;;;;;25.34;100.00;100247.31;5072225;28;20226;-73
2023/06/21 03:32:02;;;;;;;1.55;1.45;;;;;;;25.51;100.00;100243.03;5034165;28;20226;-72
2023/06/21 03:34:29;;;;;;;0.73;0.73;;;;;;;25.46;100.00;100238.84;5069811;28;20642;-74
2023/06/21 03:36:56;;;;;;;0.60;0.60;;;;;;;25.70;100.00;100248.41;5070755;28;20198;-72
2023/06/21 03:39:23;;;;;;;0.70;0.70;;;;;;;25.90;100.00;100248.38;5072368;28;20251;-73
2023/06/21 03:41:50;;;;;;;0.70;0.70;;;;;;;26.31;100.00;100265.13;5070220;28;20202;-71
2023/06/21 03:44:16;;;;;;;0.75;0.75;;;;;;;26.52;99.83;100268.56;5072369;28;20888;-71
2023/06/21 03:46:43;;;;;;;1.10;0.80;;;;;;;26.68;96.41;100276.69;5072432;28;20211;-73
2023/06/21 03:49:11;;;;;;;0.65;0.65;;;;;;;27.15;93.21;100253.09;5066682;28;20659;-72
2023/06/21 03:51:39;;;;;;;0.57;0.57;;;;;;;27.63;88.58;100277.25;5072254;28;20199;-72
2023/06/21 03:54:06;;;;;;;0.50;0.50;;;;;;;28.01;81.01;100276.09;5072215;28;20203;-75
2023/06/21 03:56:33;;;;;;;0.70;0.70;;;;;;;28.02;77.32;100269.81;5071771;28;20568;-75
2023/06/21 03:59:00;;;;;;;0.50;0.50;;;;;;;28.48;77.28;100283.34;5072155;28;20254;-76
2023/06/21 04:01:26;;;;;;;0.80;0.80;;;;;;;29.01;74.00;100270.50;5072097;28;20202;-75
2023/06/21 04:03:53;;;;;;;0.70;0.70;;;;;;;28.97;72.53;100274.31;5072192;28;20195;-75
2023/06/21 04:06:21;;;;;;;0.60;0.60;;;;;;;28.60;74.14;100269.31;5071974;28;20194;-75
2023/06/21 04:08:48;;;;;;;0.60;0.60;;;;;;;29.03;71.00;100273.97;5071903;28;20653;-75
2023/06/21 04:11:15;;;;;;;0.60;0.60;;;;;;;29.37;68.83;100274.69;5072437;28;20228;-75
2023/06/21 04:13:42;;;;;;;0.95;0.80;;;;;;;29.49;68.70;100281.97;5072329;28;20667;-74
2023/06/21 04:16:08;;;;;;;0.95;0.80;;;;;;;30.14;64.60;100290.50;5071950;28;20198;-74
2023/06/21 04:18:35;;;;;;;0.77;0.77;;;;;;;31.07;61.87;100290.78;5071486;28;20271;-75
2023/06/21 04:21:02;;;;;;;0.85;0.85;;;;;;;30.71;59.28;100292.19;5071679;28;20198;-75
2023/06/21 04:23:30;;;;;;;0.55;0.55;;;;;;;31.35;57.47;100293.31;5072166;28;20198;-76
2023/06/21 04:25:57;;;;;;;0.77;0.77;;;;;;;31.83;56.95;100289.97;5072107;28;20210;-75
2023/06/21 04:28:25;;;;;;;0.60;0.60;;;;;;;31.59;58.73;100293.50;5071474;28;20289;-74
2023/06/21 04:30:52;;;;;;;0.60;0.60;;;;;;;31.64;59.45;100302.97;5040945;28;20578;-75
2023/06/21 04:33:19;;;;;;;0.50;0.50;;;;;;;31.99;58.65;100311.25;5068234;28;20228;-74
2023/06/21 04:35:46;;;;;;;0.70;0.70;;;;;;;32.61;53.64;100312.19;5072818;28;20198;-77
2023/06/21 04:38:13;;;;;;;0.57;0.57;;;;;;;32.88;54.06;100320.94;5033538;28;20264;-76
2023/06/21 04:40:41;;;;;;;2.83;0.85;;;;;;;32.91;53.13;100328.75;5052647;28;20226;-76
2023/06/21 04:43:08;;;;;;;0.40;0.40;;;;;;;33.22;53.19;100334.56;5064063;28;20194;-74
2023/06/21 04:45:35;;;;;;;0.55;0.55;;;;;;;33.42;51.72;100320.50;5071779;28;20726;-74
2023/06/21 04:48:04;;;;;;;0.88;0.88;;;;;;;33.69;49.85;100331.88;5071231;28;20233;-76
2023/06/21 04:50:31;;;;;;;0.60;0.60;;;;;;;33.38;49.66;100338.69;5071718;28;20202;-76
2023/06/21 04:52:59;;;;;;;0.60;0.60;;;;;;;33.49;49.59;100337.88;5072028;28;20627;-77
2023/06/21 04:55:26;;;;;;;0.60;0.60;;;;;;;33.94;49.19;100335.34;5022625;28;20202;-75
2023/06/21 04:57:55;;;;;;;0.52;0.52;;;;;;;34.30;47.37;100327.97;5063264;28;20198;-75
2023/06/21 05:00:22;;;;;;;0.55;0.55;;;;;;;34.68;46.35;100354.53;5073150;28;20383;-77
2023/06/21 05:02:49;;;;;;;0.50;0.50;;;;;;;34.67;45.16;100358.25;5050749;28;20205;-75
2023/06/21 05:05:16;;;;;;;0.65;0.65;;;;;;;34.64;44.95;100361.16;5071010;28;20251;-73
2023/06/21 05:07:42;;;;;;;0.80;0.80;;;;;;;34.50;45.07;100358.69;5069061;28;20198;-75
2023/06/21 05:10:10;;;;;;;0.70;0.70;;;;;;;34.01;45.68;100331.19;5071797;28;20202;-74
2023/06/21 05:12:37;;;;;;;1.17;0.82;;;;;;;33.96;45.33;100344.16;5059880;28;20214;-74
2023/06/21 05:15:06;;;;;;;0.70;0.70;;;;;;;34.19;45.29;100352.19;5066885;28;20214;-74
2023/06/21 05:17:33;;;;;;;1.55;1.45;;;;;;;34.57;43.69;100359.91;5049190;28;20614;-74
2023/06/21 05:20:00;;;;;;;0.50;0.50;;;;;;;34.65;43.93;100357.47;5070592;28;20793;-75
2023/06/21 05:22:27;;;;;;;1.05;0.98;;;;;;;34.72;43.50;100342.53;5071741;28;20193;-72
2023/06/21 05:24:53;;;;;;;0.60;0.60;;;;;;;34.78;43.00;100360.91;5067107;28;20205;-70
2023/06/21 05:27:20;;;;;;;0.60;0.60;;;;;;;34.60;43.30;100340.81;5071613;28;20233;-76
2023/06/21 05:29:47;;;;;;;1.00;0.77;;;;;;;34.80;42.45;100356.25;5070787;28;20190;-73
2023/06/21 05:32:15;;;;;;;0.60;0.60;;;;;;;35.03;42.17;100350.84;5071417;28;20209;-74
2023/06/21 05:34:42;;;;;;;0.60;0.60;;;;;;;34.62;41.58;100351.47;5071135;28;20657;-74
2023/06/21 05:37:09;;;;;;;0.60;0.60;;;;;;;34.80;42.38;100345.47;5070996;28;20206;-74
2023/06/21 05:39:35;;;;;;;1.08;0.80;;;;;;;34.57;42.95;100351.81;5071551;28;20713;-77
2023/06/21 05:42:02;;;;;;;0.95;0.95;;;;;;;34.29;43.68;100347.78;5071048;28;20198;-75
2023/06/21 05:44:29;;;;;;;0.60;0.60;;;;;;;33.73;44.43;100348.63;5071188;28;20190;-74
2023/06/21 05:46:56;;;;;;;1.85;1.75;;;;;;;33.79;44.62;100340.94;5070877;28;20210;-73
2023/06/21 05:49:24;;;;;;;0.70;0.70;;;;;;;33.85;45.21;100343.13;5070875;28;20202;-71
2023/06/21 05:51:51;;;;;;;0.60;0.60;;;;;;;34.10;44.62;100331.34;5070715;28;20206;-71
2023/06/21 05:54:17;;;;;;;0.60;0.60;;;;;;;34.42;43.59;100352.22;5072601;28;20665;-71
2023/06/21 05:56:44;;;;;;;1.25;0.80;;;;;;;34.63;42.30;100347.81;5074554;28;20198;-71
2023/06/21 05:59:11;;;;;;;0.55;0.55;;;;;;;34.28;43.46;100340.66;5074492;28;20320;-73
2023/06/21 06:01:38;;;;;;;0.60;0.60;;;;;;;33.81;44.45;100341.69;5065795;28;20214;-71
2023/06/21 06:04:04;;;;;;;0.60;0.60;;;;;;;33.40;45.26;100347.50;5069364;28;20206;-71
2023/06/21 06:06:59;;;;;;;0.60;0.60;;;;;;;33.46;47.69;100348.03;5074432;28;20190;-73
2023/06/21 06:09:26;;;;;;;0.60;0.60;;;;;;;32.99;46.81;100343.47;5032239;28;20697;-73
2023/06/21 06:11:53;;;;;;;0.82;0.80;;;;;;;32.92;47.31;100351.13;5032544;28;20195;-72
2023/06/21 06:14:20;;;;;;;0.50;0.50;;;;;;;32.75;47.91;100341.59;5032608;28;20659;-73
2023/06/21 06:16:46;;;;;;;0.60;0.60;;;;;;;32.11;47.91;100342.59;5032301;28;20199;-73
2023/06/21 06:19:13;;;;;;;0.60;0.60;;;;;;;31.46;49.58;100339.03;5032496;28;20287;-73
2023/06/21 06:21:41;;;;;;;0.60;0.60;;;;;;;31.27;50.46;100344.75;5032513;28;20200;-72
2023/06/21 06:24:08;;;;;;;0.73;0.73;;;;;;;31.02;50.68;100338.41;5032380;28;20706;-71
2023/06/21 06:26:35;;;;;;;0.63;0.63;;;;;;;30.79;52.29;100330.03;5019380;28;20207;-73
2023/06/21 06:29:02;;;;;;;0.60;0.60;;;;;;;30.87;51.47;100341.09;5055925;28;20202;-71
2023/06/21 06:31:30;;;;;;;0.80;0.80;;;;;;;31.11;51.81;100325.28;5039156;28;20234;-72
2023/06/21 06:33:57;;;;;;;0.60;0.60;;;;;;;31.29;52.47;100333.91;5074452;28;20198;-72
2023/06/21 06:36:24;;;;;;;0.60;0.60;;;;;;;30.96;52.67;100337.81;5074286;28;20202;-71
2023/06/21 06:38:53;;;;;;;0.60;0.60;;;;;;;30.81;53.03;100325.44;5073943;28;20645;-72
2023/06/21 06:41:20;;;;;;;0.70;0.70;;;;;;;30.70;54.22;100338.66;5074298;28;20230;-72
2023/06/21 06:43:47;;;;;;;0.70;0.70;;;;;;;30.80;55.90;100339.78;5073891;28;20230;-71
2023/06/21 06:46:14;;;;;;;0.60;0.60;;;;;;;30.25;57.09;100337.00;5074077;28;20206;-71
2023/06/21 06:48:41;;;;;;;0.60;0.60;;;;;;;29.87;59.19;100314.44;5073906;28;20198;-71
2023/06/21 06:51:07;;;;;;;0.82;0.82;;;;;;;29.74;63.24;100330.34;5073922;28;20696;-72
2023/06/21 06:53:34;;;;;;;1.63;1.35;;;;;;;29.53;66.14;100336.97;5073874;28;20701;-72
2023/06/21 06:56:02;;;;;;;0.50;0.50;;;;;;;29.57;68.17;100329.63;5074024;28;20206;-71
2023/06/21 06:58:29;;;;;;;0.70;0.70;;;;;;;29.25;69.46;100249.50;5073905;28;20228;-71
2023/06/21 07:00:56;;;;;;;0.60;0.60;;;;;;;29.90;69.42;100323.13;5073896;28;20222;-71
2023/06/21 07:03:23;;;;;;;0.65;0.65;;;;;;;29.81;67.81;100326.34;5073593;28;20202;-71
2023/06/21 07:05:50;;;;;;;0.88;0.88;;;;;;;30.02;68.77;100325.06;5073445;28;20665;-71
2023/06/21 07:08:17;;;;;;;0.70;0.70;;;;;;;30.01;69.19;100320.69;5073588;28;20202;-71
2023/06/21 07:10:44;;;;;;;0.70;0.70;;;;;;;30.10;69.08;100321.06;5073351;28;20700;-71
2023/06/21 07:13:12;;;;;;;0.73;0.73;;;;;;;30.24;68.06;100332.63;5073350;28;20199;-71
2023/06/21 07:15:39;;;;;;;0.60;0.60;;;;;;;30.40;68.14;100324.50;5073424;28;20195;-71
2023/06/21 07:18:06;;;;;;;0.70;0.70;;;;;;;30.22;67.74;100326.50;5073397;28;20595;-71
2023/06/21 07:20:34;;;;;;;0.60;0.60;;;;;;;30.01;68.59;100322.47;5073063;28;20226;-71
2023/06/21 07:23:01;;;;;;;0.50;0.50;;;;;;;30.31;68.27;100309.03;5073259;28;20202;-71
2023/06/21 07:25:28;;;;;;;0.80;0.80;;;;;;;30.31;63.59;100319.72;5073255;28;20202;-71
2023/06/21 07:27:54;;;;;;;0.75;0.73;;;;;;;30.31;63.69;100322.41;5073301;28;20197;-71
2023/06/21 07:30:23;;;;;;;0.70;0.70;;;;;;;29.95;65.66;100296.13;5073452;28;20658;-71
2023/06/21 07:32:50;;;;;;;1.85;1.00;;;;;;;29.97;62.69;100316.47;5072976;28;20199;-71
2023/06/21 07:35:17;;;;;;;1.13;1.02;;;;;;;29.87;63.50;100319.78;5072983;28;20203;-70
2023/06/21 07:37:44;;;;;;;0.70;0.70;;;;;;;29.91;62.41;100315.97;5072871;28;20685;-72
2023/06/21 07:40:12;;;;;;;0.60;0.60;;;;;;;29.66;61.01;100279.16;5072960;28;20268;-71
2023/06/21 07:42:39;;;;;;;0.65;0.65;;;;;;;29.80;61.52;100319.28;5072921;28;20199;-71
2023/06/21 07:45:07;;;;;;;1.05;1.05;;;;;;;29.70;64.25;100319.91;5072848;28;20194;-71
2023/06/21 07:47:36;;;;;;;0.68;0.68;;;;;;;30.04;62.17;100316.09;5072715;28;20201;-72
2023/06/21 07:50:04;;;;;;;0.60;0.60;;;;;;;30.15;61.35;100318.94;5072631;28;20221;-72
2023/06/21 07:52:30;;;;;;;0.60;0.60;;;;;;;30.14;62.07;100318.13;5072621;28;20209;-71
2023/06/21 07:54:57;;;;;;;0.60;0.60;;;;;;;30.28;61.93;100319.94;5072770;28;20203;-71
2023/06/21 07:57:24;;;;;;;0.60;0.60;;;;;;;30.34;63.33;100317.72;5072519;28;20733;-71
2023/06/21 07:59:51;;;;;;;0.65;0.65;;;;;;;30.37;62.07;100295.25;5072410;28;20276;-71
2023/06/21 08:02:18;;;;;;;0.60;0.60;;;;;;;30.32;63.65;100275.97;5037436;28;20201;-71
2023/06/21 08:04:46;;;;;;;0.75;0.75;;;;;;;30.88;60.79;100315.19;5072494;28;20256;-71
2023/06/21 08:07:14;;;;;;;1.02;1.02;;;;;;;30.62;63.57;100318.69;5072370;28;20234;-72
2023/06/21 08:09:41;;;;;;;0.70;0.70;;;;;;;30.70;62.66;100306.53;5053991;28;20259;-71
2023/06/21 08:12:08;;;;;;;0.70;0.70;;;;;;;30.77;61.73;100320.38;5072319;28;20231;-71
2023/06/21 08:14:35;;;;;;;0.57;0.57;;;;;;;30.81;60.29;100325.44;5072208;28;20237;-71
2023/06/21 08:17:02;;;;;;;0.70;0.70;;;;;;;30.94;61.71;100309.41;5071659;28;20259;-71
2023/06/21 08:19:29;;;;;;;0.63;0.63;;;;;;;30.76;60.18;100290.06;5072050;28;20680;-71
2023/06/21 08:21:57;;;;;;;1.20;1.00;;;;;;;30.47;61.16;100288.38;5072122;28;20222;-70
2023/06/21 08:24:27;;;;;;;0.88;0.88;;;;;;;30.59;61.26;100311.72;5072178;28;20205;-71
2023/06/21 08:26:54;;;;;;;0.68;0.68;;;;;;;30.88;62.08;100310.69;5063634;28;20238;-71
2023/06/21 08:29:20;;;;;;;0.63;0.63;;;;;;;31.16;60.03;100306.22;5071357;28;20202;-71
2023/06/21 08:31:47;;;;;;;0.60;0.60;;;;;;;31.17;59.71;100316.00;5058204;28;20234;-71
2023/06/21 08:34:14;;;;;;;0.63;0.63;;;;;;;31.48;58.81;100305.78;5071029;28;20206;-72
2023/06/21 08:36:41;;;;;;;0.75;0.75;;;;;;;31.30;57.61;100311.53;5057558;28;20202;-71
2023/06/21 08:39:09;;;;;;;0.70;0.70;;;;;;;31.48;56.13;100311.16;5053120;28;20205;-71
2023/06/21 08:41:37;;;;;;;0.70;0.70;;;;;;;31.62;55.93;100309.38;5071402;28;20661;-71
2023/06/21 08:44:04;;;;;;;0.65;0.65;;;;;;;31.17;55.67;100240.97;5036326;28;20289;-71
2023/06/21 08:46:35;;;;;;;0.60;0.60;;;;;;;31.92;55.59;100305.44;5071361;28;20218;-71
2023/06/21 08:49:05;;;;;;;0.98;0.77;;;;;;;31.80;55.19;100311.66;5071734;28;20661;-71
2023/06/21 08:51:35;;;;;;;0.75;0.75;;;;;;;31.92;53.48;100305.44;5071313;28;20684;-72
2023/06/21 08:54:04;;;;;;;0.60;0.60;;;;;;;31.97;52.12;100307.78;5071385;28;20616;-71
2023/06/21 08:56:38;;;;;;;1.30;1.30;;;;;;;31.75;52.99;100303.06;5071521;28;20286;-71
2023/06/21 08:59:09;;;;;;;0.60;0.60;;;;;;;31.82;51.84;100282.88;5071347;28;20206;-72
2023/06/21 09:01:49;;;;;;;0.68;0.68;;;;;;;31.85;52.75;100304.16;5058754;28;20226;-72
2023/06/21 09:04:18;;;;;;;1.15;1.15;;;;;;;31.85;51.08;100301.47;5058014;28;20623;-72
2023/06/21 09:06:46;;;;;;;1.05;0.85;;;;;;;31.67;51.88;100304.56;5071217;28;20206;-72
2023/06/21 09:09:14;;;;;;;0.88;0.82;;;;;;;31.81;50.66;100302.66;5071068;28;20202;-72
2023/06/21 09:11:46;;;;;;;0.60;0.60;;;;;;;31.50;51.48;100233.28;5071018;28;20198;-72
2023/06/21 09:14:13;;;;;;;0.80;0.80;;;;;;;32.01;50.61;100295.03;5014847;28;20569;-72
2023/06/21 09:16:40;;;;;;;0.55;0.55;;;;;;;32.20;48.05;100298.16;5029071;28;20204;-71
2023/06/21 09:19:08;;;;;;;0.57;0.57;;;;;;;32.29;48.50;100300.19;5028801;28;20203;-71
2023/06/21 09:21:35;;;;;;;0.60;0.60;;;;;;;32.18;48.27;100294.72;5029015;28;20309;-71
2023/06/21 09:24:02;;;;;;;0.60;0.60;;;;;;;32.22;47.43;100304.28;5027447;28;20652;-70
2023/06/21 09:26:29;;;;;;;0.50;0.50;;;;;;;32.34;47.92;100300.72;4984178;28;20325;-70
2023/06/21 09:28:57;;;;;;;0.60;0.60;;;;;;;32.44;46.56;100294.59;5030263;28;20210;-71
2023/06/21 09:31:24;;;;;;;1.20;1.20;;;;;;;32.28;46.67;100295.81;5036782;28;20238;-72
2023/06/21 09:33:53;;;;;;;1.38;0.90;;;;;;;32.44;45.89;100299.09;5074963;28;20202;-72
2023/06/21 09:36:20;;;;;;;0.85;0.77;;;;;;;32.33;47.07;100286.44;5073747;28;20257;-72
2023/06/21 09:38:47;;;;;;;0.70;0.70;;;;;;;32.31;47.26;100271.41;5074880;28;20206;-72
2023/06/21 09:41:14;;;;;;;0.70;0.70;;;;;;;32.47;46.11;100290.81;5039552;28;20597;-71
2023/06/21 09:43:45;;;;;;;0.60;0.60;;;;;;;32.31;46.11;100276.78;5075037;28;20225;-71
2023/06/21 09:46:14;;;;;;;0.60;0.60;;;;;;;32.47;46.04;100274.69;5074812;28;20198;-72
2023/06/21 09:48:41;;;;;;;0.60;0.60;;;;;;;32.66;45.99;100288.53;5074726;28;20580;-73
2023/06/21 09:51:11;;;;;;;0.60;0.60;;;;;;;32.59;41.27;100281.91;5065426;28;20236;-71
2023/06/21 09:53:38;;;;;;;0.60;0.60;;;;;;;32.60;42.28;100297.06;5054795;28;20202;-71
2023/06/21 09:56:05;;;;;;;0.77;0.77;;;;;;;32.32;41.77;100290.09;5074105;28;20198;-70
2023/06/21 09:58:34;;;;;;;1.30;0.85;;;;;;;32.27;42.43;100286.03;5074674;28;20669;-70
2023/06/21 10:01:05;;;;;;;0.70;0.70;;;;;;;32.29;41.21;100289.44;5074333;28;20712;-71
2023/06/21 10:03:34;;;;;;;0.63;0.63;;;;;;;32.56;41.66;100287.47;5074536;28;20195;-72
2023/06/21 10:06:03;;;;;;;0.93;0.85;;;;;;;32.62;40.45;100278.13;5074296;28;20206;-72
2023/06/21 10:08:32;;;;;;;0.70;0.70;;;;;;;32.72;39.29;100263.91;5074285;28;20202;-72
2023/06/21 10:11:01;;;;;;;0.60;0.60;;;;;;;32.85;39.50;100290.75;5074361;28;20214;-72
2023/06/21 10:13:31;;;;;;;0.60;0.60;;;;;;;32.92;39.93;100279.44;5074373;28;20251;-72
2023/06/21 10:16:01;;;;;;;0.60;0.60;;;;;;;32.80;40.39;100292.91;5031975;28;20204;-72
2023/06/21 10:18:28;;;;;;;0.65;0.65;;;;;;;32.71;42.15;100256.81;4992616;28;20205;-72
2023/06/21 10:21:02;;;;;;;0.60;0.60;;;;;;;33.15;40.08;100284.94;4992720;28;20283;-72
2023/06/21 10:23:30;;;;;;;0.80;0.75;;;;;;;32.91;41.19;100283.09;4992929;28;20200;-72
2023/06/21 10:26:01;;;;;;;0.60;0.60;;;;;;;32.88;41.83;100263.66;4993714;28;20284;-75
2023/06/21 10:28:28;;;;;;;0.70;0.70;;;;;;;33.03;41.30;100280.47;4992528;28;20201;-73
2023/06/21 10:30:57;;;;;;;0.65;0.65;;;;;;;32.95;42.62;100269.41;4976227;28;20259;-74
2023/06/21 10:33:26;;;;;;;0.65;0.65;;;;;;;32.53;42.13;100263.53;4992869;28;20787;-74
2023/06/21 10:35:54;;;;;;;0.65;0.65;;;;;;;32.83;42.00;100258.59;5000267;28;20202;-74
2023/06/21 10:38:36;;;;;;;0.70;0.70;;;;;;;32.77;42.76;100272.50;5032035;28;20698;-73
2023/06/21 10:41:05;;;;;;;0.60;0.60;;;;;;;32.91;42.11;100268.78;5060231;28;20218;-74
2023/06/21 10:43:32;;;;;;;0.70;0.70;;;;;;;32.97;42.99;100272.84;5074232;28;20206;-74
2023/06/21 10:46:01;;;;;;;0.80;0.80;;;;;;;32.87;43.03;100273.53;5074061;28;20696;-74
2023/06/21 10:48:31;;;;;;;0.82;0.82;;;;;;;32.85;42.28;100270.13;5038922;28;20190;-74
2023/06/21 10:51:01;;;;;;;0.65;0.65;;;;;;;32.80;42.21;100266.91;5073753;28;20198;-74
2023/06/21 10:53:30;;;;;;;0.60;0.60;;;;;;;33.09;42.33;100267.41;5073978;28;20205;-73
2023/06/21 10:55:58;;;;;;;0.60;0.60;;;;;;;32.88;41.40;100263.66;5073700;28;20197;-73
2023/06/21 10:58:26;;;;;;;0.70;0.70;;;;;;;33.28;41.98;100261.53;5073734;28;20202;-74
2023/06/21 11:00:53;;;;;;;0.73;0.73;;;;;;;33.20;41.69;100269.31;5073773;28;20257;-74
2023/06/21 11:03:25;;;;;;;0.77;0.77;;;;;;;33.14;41.86;100259.03;5073780;28;20191;-73
2023/06/21 11:05:54;;;;;;;0.60;0.60;;;;;;;33.45;41.45;100266.47;5073749;28;20198;-74
2023/06/21 11:08:31;;;;;;;0.70;0.70;;;;;;;33.44;41.38;100264.75;5073576;28;20226;-73
2023/06/21 11:10:57;;;;;;;0.60;0.60;;;;;;;33.58;41.94;100261.00;5073852;28;20230;-76
2023/06/21 11:13:35;;;;;;;0.70;0.70;;;;;;;33.81;41.39;100266.34;5074035;28;20202;-74
2023/06/21 11:16:10;;;;;;;0.65;0.65;;;;;;;33.76;40.59;100265.84;5073482;28;20679;-74
2023/06/21 11:18:37;;;;;;;0.63;0.63;;;;;;;33.51;39.85;100263.31;5073481;28;20241;-75
2023/06/21 11:21:06;;;;;;;0.60;0.60;;;;;;;33.71;40.23;100270.72;5038250;28;20595;-76
2023/06/21 11:23:49;;;;;;;0.70;0.70;;;;;;;33.52;40.52;100251.59;5071567;28;20278;-74
2023/06/21 11:26:16;;;;;;;0.60;0.60;;;;;;;33.35;40.89;100268.16;5073142;28;20251;-74